createdAt,value
2019-03-26T00:00:22.017Z,6.70
2019-03-26T00:02:52.111Z,7.37
2019-03-26T00:05:22.075Z,7.10
2019-03-26T00:07:52.110Z,6.80
2019-03-26T00:10:22.177Z,7.13
2019-03-26T00:12:52.387Z,6.47
2019-03-26T00:15:22.522Z,6.67
2019-03-26T00:17:52.463Z,6.73
2019-03-26T00:20:22.515Z,7.03
2019-03-26T00:22:52.596Z,6.97
2019-03-26T00:25:22.538Z,8.23
2019-03-26T00:27:52.986Z,11.37
2019-03-26T00:30:22.997Z,11.80
2019-03-26T00:32:53.042Z,12.27
2019-03-26T00:35:23.132Z,11.40
2019-03-26T00:37:53.272Z,10.50
2019-03-26T00:40:23.205Z,9.93
2019-03-26T00:42:53.174Z,10.23
2019-03-26T00:45:23.762Z,9.43
2019-03-26T00:47:53.802Z,9.83
2019-03-26T00:50:23.849Z,10.67
2019-03-26T00:52:53.914Z,11.20
2019-03-26T00:55:23.958Z,10.40
2019-03-26T00:57:54.013Z,11.30
2019-03-26T01:00:39.598Z,10.03
2019-03-26T01:03:09.705Z,11.40
2019-03-26T01:05:39.851Z,10.70
2019-03-26T01:08:10.210Z,10.83
2019-03-26T01:10:40.297Z,9.87
2019-03-26T01:13:10.353Z,10.70
2019-03-26T01:15:40.514Z,11.50
2019-03-26T01:18:12.148Z,12.00
2019-03-26T01:20:42.217Z,13.90
2019-03-26T01:23:12.307Z,13.77
2019-03-26T01:25:42.263Z,16.50
2019-03-26T01:28:12.185Z,14.67
2019-03-26T01:30:42.310Z,16.10
2019-03-26T01:33:12.375Z,16.20
2019-03-26T01:35:42.348Z,16.93
2019-03-26T01:38:12.978Z,17.60
2019-03-26T01:40:43.059Z,18.70
2019-03-26T01:43:13.120Z,18.07
2019-03-26T01:45:43.791Z,16.77
2019-03-26T01:48:13.745Z,18.37
2019-03-26T01:50:44.413Z,17.57
2019-03-26T01:53:14.495Z,17.63
2019-03-26T01:55:44.447Z,16.67
2019-03-26T01:58:14.416Z,16.03
2019-03-26T02:00:44.680Z,15.37
2019-03-26T02:03:14.746Z,15.80
2019-03-26T02:05:46.814Z,15.00
2019-03-26T02:08:16.957Z,14.13
2019-03-26T02:10:47.050Z,15.60
2019-03-26T02:13:17.101Z,14.63
2019-03-26T02:15:47.108Z,13.53
2019-03-26T02:18:17.427Z,14.03
2019-03-26T02:20:47.518Z,13.57
2019-03-26T02:23:17.608Z,12.97
2019-03-26T02:25:47.559Z,13.60
2019-03-26T02:28:17.638Z,13.63
2019-03-26T02:30:49.143Z,12.27
2019-03-26T02:33:19.102Z,12.77
2019-03-26T02:35:49.173Z,12.27
2019-03-26T02:38:19.764Z,12.43
2019-03-26T02:40:50.173Z,12.20
2019-03-26T02:43:23.360Z,12.53
2019-03-26T02:45:53.420Z,13.20
2019-03-26T02:48:23.771Z,12.30
2019-03-26T02:50:54.294Z,12.90
2019-03-26T02:53:24.630Z,12.50
2019-03-26T02:55:54.688Z,11.90
2019-03-26T02:58:24.958Z,11.67
2019-03-26T03:00:54.908Z,11.03
2019-03-26T03:03:24.854Z,10.63
2019-03-26T03:05:54.976Z,11.73
2019-03-26T03:08:24.920Z,12.00
2019-03-26T03:10:54.970Z,11.73
2019-03-26T03:13:25.076Z,10.93
2019-03-26T03:15:55.152Z,10.73
2019-03-26T03:18:25.064Z,11.03
2019-03-26T03:20:55.164Z,11.77
2019-03-26T03:23:25.246Z,11.47
2019-03-26T03:25:55.202Z,11.57
2019-03-26T03:28:25.278Z,12.90
2019-03-26T03:30:55.327Z,13.07
2019-03-26T03:33:25.405Z,13.13
2019-03-26T03:35:55.397Z,13.57
2019-03-26T03:38:25.357Z,14.80
2019-03-26T03:40:55.411Z,14.80
2019-03-26T03:43:25.736Z,14.83
2019-03-26T03:45:55.675Z,15.07
2019-03-26T03:48:25.928Z,16.27
2019-03-26T03:50:57.299Z,17.50
2019-03-26T03:53:27.944Z,17.17
2019-03-26T03:56:01.412Z,18.83
2019-03-26T03:58:33.007Z,19.50
2019-03-26T04:01:02.984Z,20.07
2019-03-26T04:03:32.972Z,20.67
2019-03-26T04:06:09.359Z,20.50
2019-03-26T04:08:34.908Z,21.37
2019-03-26T04:11:04.946Z,20.10
2019-03-26T04:13:34.895Z,21.10
2019-03-26T04:16:04.964Z,22.53
2019-03-26T04:18:35.412Z,21.87
2019-03-26T04:21:05.360Z,19.20
2019-03-26T04:23:35.318Z,18.63
2019-03-26T04:26:05.416Z,19.37
2019-03-26T04:28:35.477Z,20.03
2019-03-26T04:31:05.423Z,21.77
2019-03-26T04:33:35.553Z,18.87
2019-03-26T04:36:07.125Z,20.33
2019-03-26T04:38:37.300Z,21.67
2019-03-26T04:41:07.682Z,19.90
2019-03-26T04:43:37.608Z,19.67
2019-03-26T04:46:08.070Z,17.13
2019-03-26T04:48:38.154Z,16.40
2019-03-26T04:51:08.096Z,17.13
2019-03-26T04:53:38.025Z,16.47
2019-03-26T04:56:08.533Z,19.57
2019-03-26T04:58:39.119Z,38.43
2019-03-26T05:01:09.061Z,44.23
2019-03-26T05:03:39.068Z,42.03
2019-03-26T05:06:09.118Z,20.47
2019-03-26T05:08:40.500Z,15.37
2019-03-26T05:11:11.059Z,16.43
2019-03-26T05:13:41.124Z,15.77
2019-03-26T05:16:11.103Z,14.87
2019-03-26T05:18:41.054Z,15.00
2019-03-26T05:21:11.360Z,14.70
2019-03-26T05:23:41.670Z,16.33
2019-03-26T05:26:11.622Z,16.63
2019-03-26T05:28:41.577Z,15.57
2019-03-26T05:31:11.689Z,15.77
2019-03-26T05:33:42.254Z,14.50
2019-03-26T05:36:12.211Z,14.37
2019-03-26T05:38:42.219Z,13.87
2019-03-26T05:41:13.736Z,14.50
2019-03-26T05:43:43.863Z,15.60
2019-03-26T05:46:13.858Z,14.10
2019-03-26T05:48:43.923Z,13.70
2019-03-26T05:51:14.870Z,13.40
2019-03-26T05:53:45.999Z,12.90
2019-03-26T05:56:18.360Z,13.47
2019-03-26T05:58:48.410Z,13.47
2019-03-26T06:01:18.411Z,14.43
2019-03-26T06:03:48.502Z,13.20
2019-03-26T06:06:18.697Z,11.57
2019-03-26T06:08:49.055Z,12.33
2019-03-26T06:11:19.013Z,12.70
2019-03-26T06:13:48.956Z,12.43
2019-03-26T06:16:19.235Z,15.23
2019-03-26T06:18:49.321Z,12.20
2019-03-26T06:21:19.255Z,12.47
2019-03-26T06:23:49.301Z,11.30
2019-03-26T06:26:19.385Z,10.83
2019-03-26T06:28:49.362Z,11.40
2019-03-26T06:31:19.595Z,11.13
2019-03-26T06:33:49.669Z,10.40
2019-03-26T06:36:19.599Z,11.17
2019-03-26T06:38:49.666Z,10.83
2019-03-26T06:41:19.734Z,11.80
2019-03-26T06:43:49.781Z,11.53
2019-03-26T06:49:01.526Z,11.07
2019-03-26T06:51:31.526Z,11.13
2019-03-26T06:54:03.122Z,11.27
2019-03-26T06:56:36.502Z,10.57
2019-03-26T06:59:06.762Z,10.57
2019-03-26T07:01:37.074Z,10.97
2019-03-26T07:04:07.202Z,11.13
2019-03-26T07:06:37.322Z,11.70
2019-03-26T07:09:08.387Z,11.73
2019-03-26T07:11:38.583Z,12.00
2019-03-26T07:14:08.754Z,12.70
2019-03-26T07:16:38.744Z,12.77
2019-03-26T07:19:08.894Z,12.67
2019-03-26T07:21:49.123Z,12.40
2019-03-26T07:24:10.670Z,12.07
2019-03-26T07:26:40.678Z,12.73
2019-03-26T07:29:10.765Z,11.57
2019-03-26T07:31:40.873Z,12.40
2019-03-26T07:34:11.981Z,12.07
2019-03-26T07:36:41.933Z,12.07
2019-03-26T07:39:12.103Z,10.80
2019-03-26T07:41:42.236Z,12.03
2019-03-26T07:44:12.197Z,12.07
2019-03-26T07:46:42.153Z,13.03
2019-03-26T07:49:12.245Z,12.97
2019-03-26T07:51:42.271Z,11.80
2019-03-26T07:54:12.355Z,13.00
2019-03-26T07:56:42.454Z,12.27
2019-03-26T07:59:12.425Z,12.07
2019-03-26T08:01:42.383Z,11.97
2019-03-26T08:04:12.788Z,11.20
2019-03-26T08:06:42.849Z,11.93
2019-03-26T08:09:12.811Z,11.83
2019-03-26T08:11:42.863Z,11.03
2019-03-26T08:14:12.974Z,10.43
2019-03-26T08:16:43.031Z,10.80
2019-03-26T08:19:14.017Z,11.77
2019-03-26T08:21:44.031Z,11.20
2019-03-26T08:24:14.112Z,11.07
2019-03-26T08:26:44.217Z,11.63
2019-03-26T08:29:14.171Z,11.40
2019-03-26T08:31:44.345Z,11.30
2019-03-26T08:34:14.339Z,11.53
2019-03-26T08:36:44.312Z,11.63
2019-03-26T08:39:14.382Z,10.87
2019-03-26T08:41:44.510Z,11.13
2019-03-26T08:44:14.464Z,11.13
2019-03-26T08:46:46.307Z,11.13
2019-03-26T08:49:16.264Z,10.27
2019-03-26T08:51:46.326Z,9.90
2019-03-26T08:54:16.310Z,10.90
2019-03-26T08:56:46.314Z,11.13
2019-03-26T08:59:16.392Z,11.43
2019-03-26T09:01:46.461Z,9.97
2019-03-26T09:04:16.459Z,10.53
2019-03-26T09:06:46.493Z,11.17
2019-03-26T09:09:16.655Z,10.40
2019-03-26T09:11:46.659Z,10.33
2019-03-26T09:14:16.858Z,10.17
2019-03-26T09:16:46.950Z,10.30
2019-03-26T09:19:17.275Z,11.13
2019-03-26T09:21:47.236Z,10.90
2019-03-26T09:24:17.293Z,11.33
2019-03-26T09:26:47.521Z,10.67
2019-03-26T09:29:17.496Z,9.87
2019-03-26T09:31:47.458Z,10.00
2019-03-26T09:34:17.547Z,10.33
2019-03-26T09:36:47.615Z,9.60
2019-03-26T09:39:17.602Z,10.67
2019-03-26T09:41:47.635Z,9.73
2019-03-26T09:44:17.700Z,10.83
2019-03-26T09:46:47.829Z,9.50
2019-03-26T09:49:17.851Z,9.40
2019-03-26T09:51:47.776Z,9.73
2019-03-26T09:54:17.871Z,9.87
2019-03-26T09:56:47.950Z,9.60
2019-03-26T09:59:17.919Z,8.47
2019-03-26T10:01:47.872Z,9.70
2019-03-26T10:04:17.977Z,9.77
2019-03-26T10:06:48.027Z,9.50
2019-03-26T10:09:17.982Z,9.50
2019-03-26T10:11:47.971Z,8.63
2019-03-26T10:14:18.031Z,9.03
2019-03-26T10:16:48.091Z,8.47
2019-03-26T10:19:18.078Z,9.60
2019-03-26T10:21:48.038Z,9.37
2019-03-26T10:24:18.157Z,9.77
2019-03-26T10:27:00.523Z,8.87
2019-03-26T10:29:31.284Z,9.10
2019-03-26T10:32:01.502Z,8.43
2019-03-26T10:34:32.642Z,9.43
2019-03-26T10:37:03.750Z,10.00
2019-03-26T10:39:33.865Z,9.60
2019-03-26T10:42:06.908Z,9.43
2019-03-26T10:44:35.639Z,8.50
2019-03-26T10:47:05.734Z,9.07
2019-03-26T10:49:35.842Z,8.63
2019-03-26T10:52:06.176Z,8.63
2019-03-26T10:54:36.202Z,8.50
2019-03-26T10:57:06.178Z,8.37
2019-03-26T10:59:36.431Z,7.97
2019-03-26T11:02:06.660Z,8.80
2019-03-26T11:04:36.608Z,8.97
2019-03-26T11:07:06.751Z,8.03
2019-03-26T11:09:36.813Z,8.00
2019-03-26T11:12:06.752Z,8.93
2019-03-26T11:14:36.845Z,8.60
2019-03-26T11:17:06.907Z,8.80
2019-03-26T11:19:36.832Z,8.83
2019-03-26T11:22:06.836Z,8.23
2019-03-26T11:24:36.886Z,8.73
2019-03-26T11:27:06.968Z,8.03
2019-03-26T11:29:36.932Z,8.43
2019-03-26T11:32:06.986Z,8.87
2019-03-26T11:34:37.039Z,8.57
2019-03-26T11:37:07.163Z,8.13
2019-03-26T11:39:49.485Z,7.77
2019-03-26T11:42:22.194Z,9.33
2019-03-26T11:44:52.355Z,8.13
2019-03-26T11:47:22.634Z,7.87
2019-03-26T11:49:53.203Z,7.73
2019-03-26T11:52:23.620Z,8.17
2019-03-26T11:54:53.728Z,7.27
2019-03-26T11:57:23.675Z,7.40
2019-03-26T11:59:53.798Z,7.60
2019-03-26T12:02:24.054Z,7.97
2019-03-26T12:04:54.036Z,7.30
2019-03-26T12:07:24.165Z,7.83
2019-03-26T12:09:54.249Z,6.93
2019-03-26T12:12:24.940Z,7.43
2019-03-26T12:14:54.934Z,8.07
2019-03-26T12:17:24.882Z,7.63
2019-03-26T12:19:54.937Z,6.77
2019-03-26T12:22:25.038Z,7.03
2019-03-26T12:24:54.995Z,11.00
2019-03-26T12:27:24.944Z,8.77
2019-03-26T12:29:55.047Z,9.90
2019-03-26T12:32:25.011Z,8.90
2019-03-26T12:34:55.488Z,8.63
2019-03-26T12:37:25.617Z,8.77
2019-03-26T12:39:59.631Z,9.07
2019-03-26T12:42:27.228Z,8.00
2019-03-26T12:44:57.325Z,9.20
2019-03-26T12:47:27.412Z,9.43
2019-03-26T12:49:57.361Z,8.97
2019-03-26T12:52:27.406Z,9.50
2019-03-26T12:54:57.451Z,9.53
2019-03-26T12:57:27.569Z,10.73
2019-03-26T12:59:57.567Z,9.80
2019-03-26T13:02:27.602Z,10.90
2019-03-26T13:04:57.597Z,11.17
2019-03-26T13:07:27.902Z,9.83
2019-03-26T13:09:58.327Z,9.90
2019-03-26T13:12:28.363Z,10.83
2019-03-26T13:14:59.501Z,11.37
2019-03-26T13:17:29.759Z,10.23
2019-03-26T13:19:59.816Z,9.70
2019-03-26T13:22:30.098Z,9.77
2019-03-26T13:25:00.259Z,10.00
2019-03-26T13:27:30.300Z,9.17
2019-03-26T13:30:00.403Z,9.47
2019-03-26T13:32:30.476Z,8.40
2019-03-26T13:35:00.461Z,9.33
2019-03-26T13:37:30.460Z,9.43
2019-03-26T13:40:00.547Z,8.93
2019-03-26T13:42:30.595Z,9.47
2019-03-26T13:45:00.575Z,9.57
2019-03-26T13:47:30.518Z,10.30
2019-03-26T13:50:00.587Z,10.80
2019-03-26T13:52:30.606Z,10.87
2019-03-26T13:55:00.697Z,10.77
2019-03-26T13:57:30.759Z,9.80
2019-03-26T14:00:00.899Z,10.23
2019-03-26T14:02:30.855Z,9.47
2019-03-26T14:05:00.955Z,9.80
2019-03-26T14:07:31.054Z,10.00
2019-03-26T14:10:01.010Z,9.60
2019-03-26T14:12:30.991Z,8.83
2019-03-26T14:15:01.130Z,9.07
2019-03-26T14:17:31.285Z,9.50
2019-03-26T14:20:01.224Z,9.83
2019-03-26T14:22:31.544Z,9.57
2019-03-26T14:25:01.614Z,8.50
2019-03-26T14:27:31.676Z,9.57
2019-03-26T14:30:03.039Z,7.93
2019-03-26T14:32:33.101Z,8.20
2019-03-26T14:35:03.070Z,8.73
2019-03-26T14:37:33.224Z,10.00
2019-03-26T14:40:04.743Z,11.20
2019-03-26T14:42:34.838Z,12.20
2019-03-26T14:45:05.444Z,13.40
2019-03-26T14:47:35.382Z,12.53
2019-03-26T14:50:06.591Z,12.53
2019-03-26T14:52:36.836Z,12.17
2019-03-26T14:55:07.300Z,12.13
2019-03-26T14:57:37.273Z,13.20
2019-03-26T15:00:08.094Z,13.23
2019-03-26T15:02:38.154Z,12.70
2019-03-26T15:05:09.657Z,12.60
2019-03-26T15:07:39.665Z,13.70
2019-03-26T15:10:09.929Z,12.83
2019-03-26T15:12:40.135Z,12.03
2019-03-26T15:15:10.335Z,12.50
2019-03-26T15:17:40.266Z,11.47
2019-03-26T15:20:10.612Z,11.77
2019-03-26T15:22:40.881Z,11.23
2019-03-26T15:25:11.102Z,11.80
2019-03-26T15:27:41.059Z,12.13
2019-03-26T15:30:12.607Z,11.33
2019-03-26T15:32:42.721Z,10.87
2019-03-26T15:35:12.889Z,12.13
2019-03-26T15:37:42.877Z,16.93
2019-03-26T15:40:13.227Z,11.77
2019-03-26T15:42:43.285Z,12.80
2019-03-26T15:45:14.949Z,12.53
2019-03-26T15:47:44.871Z,13.13
2019-03-26T15:50:19.037Z,12.50
2019-03-26T15:52:49.038Z,11.80
2019-03-26T15:55:19.151Z,14.23
2019-03-26T15:57:49.654Z,11.93
2019-03-26T16:00:22.526Z,12.73
2019-03-26T16:02:52.483Z,13.70
2019-03-26T16:05:22.575Z,13.90
2019-03-26T16:07:52.773Z,13.10
2019-03-26T16:10:22.756Z,13.57
2019-03-26T16:12:52.770Z,13.90
2019-03-26T16:15:22.844Z,13.73
2019-03-26T16:17:53.022Z,14.17
2019-03-26T16:20:23.143Z,14.40
2019-03-26T16:22:53.113Z,13.50
2019-03-26T16:25:23.196Z,13.70
2019-03-26T16:27:53.330Z,15.03
2019-03-26T16:30:23.283Z,13.80
2019-03-26T16:32:53.351Z,12.90
2019-03-26T16:35:23.360Z,13.50
2019-03-26T16:37:53.368Z,11.97
2019-03-26T16:40:23.437Z,12.87
2019-03-26T16:42:53.729Z,12.87
2019-03-26T16:45:24.631Z,13.07
2019-03-26T16:47:54.669Z,11.83
2019-03-26T16:50:24.854Z,11.63
2019-03-26T16:52:54.927Z,12.23
2019-03-26T16:55:24.906Z,11.53
2019-03-26T16:57:54.936Z,12.70
2019-03-26T17:00:33.009Z,13.10
2019-03-26T17:03:03.332Z,12.47
2019-03-26T17:05:33.346Z,10.73
2019-03-26T17:08:03.344Z,12.97
2019-03-26T17:10:33.707Z,13.07
2019-03-26T17:13:03.721Z,12.40
2019-03-26T17:15:34.102Z,12.07
2019-03-26T17:18:04.333Z,11.00
2019-03-26T17:20:34.373Z,10.23
2019-03-26T17:23:04.504Z,10.47
2019-03-26T17:25:34.849Z,11.17
2019-03-26T17:28:05.173Z,10.87
2019-03-26T17:30:35.283Z,10.43
2019-03-26T17:33:05.711Z,11.30
2019-03-26T17:35:36.466Z,11.83
2019-03-26T17:38:07.180Z,13.00
2019-03-26T17:40:37.345Z,11.83
2019-03-26T17:43:07.322Z,11.83
2019-03-26T17:45:37.378Z,11.67
2019-03-26T17:48:07.473Z,11.40
2019-03-26T17:50:37.502Z,11.27
2019-03-26T17:53:07.628Z,10.67
2019-03-26T17:55:37.688Z,10.27
2019-03-26T17:58:07.835Z,11.73
2019-03-26T18:00:46.888Z,8.77
2019-03-26T18:03:26.312Z,9.73
2019-03-26T18:05:48.734Z,11.97
2019-03-26T18:08:18.760Z,10.10
2019-03-26T18:10:48.861Z,9.63
2019-03-26T18:13:19.024Z,10.67
2019-03-26T18:15:49.254Z,10.47
2019-03-26T18:18:19.413Z,10.30
2019-03-26T18:20:49.467Z,10.70
2019-03-26T18:23:23.124Z,11.33
2019-03-26T18:25:53.230Z,11.37
2019-03-26T18:28:23.293Z,12.73
2019-03-26T18:30:56.533Z,12.27
2019-03-26T18:33:26.497Z,15.50
2019-03-26T18:35:59.325Z,15.33
2019-03-26T18:38:48.189Z,12.90
2019-03-26T18:41:21.561Z,11.27
2019-03-26T18:43:51.512Z,20.13
2019-03-26T18:46:21.636Z,14.13
2019-03-26T18:48:51.773Z,14.97
2019-03-26T18:52:14.689Z,15.03
2019-03-26T18:54:44.768Z,12.57
2019-03-26T18:57:14.871Z,13.17
2019-03-26T18:59:45.400Z,13.37
2019-03-26T19:02:15.800Z,13.90
2019-03-26T19:04:45.769Z,12.50
2019-03-26T19:07:15.900Z,14.20
2019-03-26T19:09:46.182Z,14.03
2019-03-26T19:12:16.132Z,15.53
2019-03-26T19:14:47.315Z,13.23
2019-03-26T19:17:17.754Z,12.43
2019-03-26T19:19:48.399Z,13.30
2019-03-26T19:22:18.511Z,11.93
2019-03-26T19:24:48.698Z,10.67
2019-03-26T19:30:25.267Z,11.07
2019-03-26T19:32:57.651Z,11.30
2019-03-26T19:35:29.212Z,11.17
2019-03-26T19:37:59.133Z,10.70
2019-03-26T19:40:29.102Z,11.87
2019-03-26T19:43:10.181Z,11.37
2019-03-26T19:45:31.066Z,11.67
2019-03-26T19:48:01.644Z,10.93
2019-03-26T19:50:31.635Z,11.53
2019-03-26T19:53:01.684Z,10.97
2019-03-26T19:55:31.732Z,11.10
2019-03-26T19:58:01.873Z,13.17
2019-03-26T20:00:32.072Z,12.87
2019-03-26T20:03:02.086Z,14.77
2019-03-26T20:05:35.329Z,13.07
2019-03-26T20:08:04.570Z,11.67
2019-03-26T20:10:34.671Z,10.40
2019-03-26T20:13:04.741Z,11.67
2019-03-26T20:15:34.776Z,10.00
2019-03-26T20:18:04.641Z,9.53
2019-03-26T20:20:34.780Z,8.40
2019-03-26T20:23:04.737Z,9.63
2019-03-26T20:25:34.731Z,9.50
2019-03-26T20:28:04.901Z,8.73
2019-03-26T20:30:40.007Z,9.60
2019-03-26T20:33:10.534Z,9.40
2019-03-26T20:35:40.506Z,10.07
2019-03-26T20:38:10.562Z,9.10
2019-03-26T20:40:40.826Z,9.30
2019-03-26T20:43:10.783Z,9.37
2019-03-26T20:45:40.781Z,10.33
2019-03-26T20:48:11.179Z,9.80
2019-03-26T20:50:41.251Z,10.27
2019-03-26T20:53:13.187Z,10.37
2019-03-26T20:55:53.724Z,9.37
2019-03-26T20:58:15.026Z,10.87
2019-03-26T21:00:46.269Z,9.90
2019-03-26T21:03:16.244Z,10.90
2019-03-26T21:05:46.201Z,9.80
2019-03-26T21:08:16.252Z,10.23
2019-03-26T21:10:46.472Z,8.83
2019-03-26T21:13:16.423Z,9.73
2019-03-26T21:15:56.599Z,9.60
2019-03-26T21:18:18.197Z,11.30
2019-03-26T21:20:48.133Z,10.50
2019-03-26T21:23:18.180Z,10.80
2019-03-26T21:25:48.264Z,10.27
2019-03-26T21:28:18.597Z,11.67
2019-03-26T21:30:48.544Z,11.03
2019-03-26T21:33:18.795Z,9.80
2019-03-26T21:35:48.837Z,10.00
2019-03-26T21:38:18.776Z,9.37
2019-03-26T21:40:48.811Z,9.77
2019-03-26T21:43:18.867Z,11.20
2019-03-26T21:45:48.920Z,11.10
2019-03-26T21:48:19.272Z,9.67
2019-03-26T21:50:49.556Z,9.00
2019-03-26T21:53:20.195Z,9.90
2019-03-26T21:55:50.198Z,9.73
2019-03-26T21:58:20.715Z,9.50
2019-03-26T22:00:50.770Z,8.90
2019-03-26T22:03:20.746Z,10.63
2019-03-26T22:05:50.695Z,9.83
2019-03-26T22:08:20.743Z,8.83
2019-03-26T22:10:51.006Z,10.17
2019-03-26T22:13:20.947Z,9.10
2019-03-26T22:15:50.884Z,10.23
2019-03-26T22:18:20.977Z,9.20
2019-03-26T22:20:51.032Z,9.17
2019-03-26T22:23:23.022Z,8.93
2019-03-26T22:25:53.055Z,9.50
2019-03-26T22:28:24.583Z,9.07
2019-03-26T22:30:54.634Z,9.27
2019-03-26T22:33:24.968Z,9.47
2019-03-26T22:35:56.124Z,9.33
2019-03-26T22:38:26.227Z,9.63
2019-03-26T22:40:56.210Z,9.57
2019-03-26T22:43:26.241Z,9.87
2019-03-26T22:45:56.284Z,10.47
2019-03-26T22:48:26.272Z,11.33
2019-03-26T22:50:56.209Z,9.87
2019-03-26T22:53:26.250Z,10.40
2019-03-26T22:55:56.345Z,11.27
2019-03-26T22:58:26.282Z,10.20
2019-03-26T23:00:56.432Z,9.33
2019-03-26T23:03:26.418Z,8.90
2019-03-26T23:05:56.458Z,9.07
2019-03-26T23:08:26.394Z,7.83
2019-03-26T23:10:56.386Z,8.30
2019-03-26T23:13:26.423Z,8.23
2019-03-26T23:15:56.340Z,8.83
2019-03-26T23:18:26.469Z,8.23
2019-03-26T23:20:56.536Z,9.27
2019-03-26T23:23:26.497Z,9.40
2019-03-26T23:25:56.487Z,9.23
2019-03-26T23:28:26.533Z,9.13
2019-03-26T23:30:56.582Z,8.90
2019-03-26T23:33:26.596Z,8.40
2019-03-26T23:35:56.353Z,9.30
2019-03-26T23:38:26.399Z,9.00
2019-03-26T23:40:56.485Z,8.40
2019-03-26T23:48:37.839Z,8.93
2019-03-26T23:51:07.840Z,8.73
2019-03-26T23:53:37.979Z,8.13
2019-03-26T23:56:08.243Z,8.90
2019-03-26T23:58:38.221Z,8.43
